Sunday, July 22, 2018, 12:56 AM GMT
Back to Local

CYFC, Fredericton, N. B.

Location: , , Canada Lat: 45.867
Local Time: 12:56 AM GMT ( 0:56 GMT) Lon: -66.533
Time Zone: GMT Elev: 55 ft

Show me the last for .
Show Decoded

2018-07-22 00:00 METAR CYFC 220000Z AUTO 23003KT 9SM CLR 25/17 A3011 RMK SLP197 DENSITY ALT
                 1000FT =
2018-07-21 23:00 METAR CYFC 212300Z AUTO 22004KT 9SM CLR 27/17 A3010 RMK SLP194 DENSITY ALT
                 1200FT =
2018-07-21 22:00 METAR CYFC 212200Z AUTO 13004KT 9SM CLR 29/15 A3010 RMK SLP195 DENSITY ALT
                 1400FT =
2018-07-21 21:00 METAR CYFC 212100Z AUTO 08004KT 9SM CLR 29/14 A3011 RMK SLP196 DENSITY ALT
                 1400FT =
2018-07-21 20:00 METAR CYFC 212000Z AUTO 10003KT 050V170 9SM CLR 29/15 A3011 RMK SLP200 DENSITY
                 ALT 1400FT =
2018-07-21 19:00 METAR CYFC 211900Z AUTO VRB03KT 9SM CLR 28/13 A3012 RMK SLP201 DENSITY ALT
                 1300FT =
2018-07-21 18:00 METAR CYFC 211800Z AUTO 13004KT 090V150 9SM CLR 28/11 A3013 RMK SLP204 DENSITY
                 ALT 1300FT =
2018-07-21 17:00 METAR CYFC 211700Z AUTO 08005KT 050V120 9SM CLR 27/14 A3014 RMK SLP208 DENSITY
                 ALT 1200FT =
2018-07-21 16:00 METAR CYFC 211600Z AUTO 07006KT 050V140 9SM CLR 27/14 A3016 RMK SLP213 DENSITY
                 ALT 1100FT =
2018-07-21 15:00 METAR CYFC 211500Z AUTO VRB03KT 9SM CLR 26/12 A3018 RMK SLP221 DENSITY ALT
                 1000FT =
2018-07-21 14:00 METAR CYFC 211400Z AUTO VRB03KT 9SM CLR 23/14 A3018 RMK SLP221 DENSITY ALT 700FT
                 =
2018-07-21 13:00 METAR CYFC 211300Z AUTO VRB02KT 9SM CLR 21/14 A3019 RMK SLP223 DENSITY ALT 400FT
                 =
2018-07-21 12:00 METAR CYFC 211200Z AUTO 00000KT 9SM CLR 18/15 A3020 RMK SLP230 DENSITY ALT 100FT
                 =
2018-07-21 11:00 METAR CYFC 211100Z AUTO VRB02KT 9SM CLR 15/14 A3020 RMK SLP228 =
2018-07-21 10:00 METAR CYFC 211000Z AUTO 19003KT 9SM FEW002 12/12 A3020 RMK SLP228 =
2018-07-21 09:00 METAR CYFC 210900Z AUTO 33002KT 9SM CLR 11/11 A3019 RMK SLP225 =
2018-07-21 08:00 METAR CYFC 210800Z AUTO 18003KT 9SM CLR 12/11 A3019 RMK SLP225 =
2018-07-21 07:00 METAR CYFC 210700Z AUTO 00000KT 9SM CLR 12/12 A3019 RMK SLP226 =
2018-07-21 06:00 METAR CYFC 210600Z AUTO 00000KT 9SM CLR 13/13 A3019 RMK SLP223 =
2018-07-21 05:00 METAR CYFC 210500Z AUTO 23003KT 9SM CLR 16/13 A3018 RMK SLP221 =
2018-07-21 04:00 METAR CYFC 210400Z AUTO 22003KT 9SM CLR 16/14 A3018 RMK SLP220 =
2018-07-21 03:00 METAR CYFC 210300Z AUTO 23003KT 9SM CLR 17/15 A3018 RMK SLP220 =
2018-07-21 02:00 METAR CYFC 210200Z AUTO 21002KT 9SM CLR 18/14 A3017 RMK SLP218 DENSITY ALT 100FT
                 =
2018-07-21 01:00 METAR CYFC 210100Z AUTO 00000KT 9SM CLR 20/15 A3017 RMK SLP218 DENSITY ALT 400FT
                 =

Support USWX by starting your Amazon purchase here.